Time;durP1;ratioP1;P1;durP2;ratioP2;P2;SDS_P1;SDS_P2;PMS_P1;PMS_P2;Temp;Humidity;BMP_temperature;BMP_pressure;BME280_temperature;BME280_humidity;BME280_pressure;Samples;Min_cycle;Max_cycle;Signal;HPM_P1;HPM_P2
2021/12/23 00:02:04;;;;;;;42.65;18.52;;;;;;;-142.18;100.00;37400.06;5149888;27;20842;-72
2021/12/23 00:04:33;;;;;;;41.70;19.10;;;;;;;-142.18;100.00;37468.50;5134777;27;20155;-73
2021/12/23 00:07:01;;;;;;;39.55;19.30;;;;;;;-142.18;100.00;37669.81;5117567;27;20087;-72
2021/12/23 00:09:56;;;;;;;37.13;18.27;;;;;;;-142.18;100.00;37653.72;5135883;27;20059;-73
2021/12/23 00:12:18;;;;;;;38.83;18.60;;;;;;;-142.18;100.00;37704.03;5133514;27;20060;-73
2021/12/23 00:14:46;;;;;;;37.75;17.63;;;;;;;-142.18;100.00;37814.78;5116768;27;20051;-72
2021/12/23 00:17:22;;;;;;;41.85;18.75;;;;;;;-142.18;100.00;37907.38;5116444;27;20066;-73
2021/12/23 00:25:21;;;;;;;34.35;17.67;;;;;;;-142.18;100.00;38563.75;5139444;27;20059;-73
2021/12/23 00:27:48;;;;;;;31.15;15.82;;;;;;;-142.18;100.00;38527.50;5152662;27;20062;-73
2021/12/23 00:30:15;;;;;;;29.50;15.52;;;;;;;-142.18;100.00;38348.31;5154149;27;20476;-72
2021/12/23 00:32:42;;;;;;;34.75;17.98;;;;;;;-142.18;100.00;38148.97;5136109;27;20448;-73
2021/12/23 00:35:10;;;;;;;38.47;18.67;;;;;;;-142.18;100.00;38169.09;5153810;27;20055;-73
2021/12/23 00:37:42;;;;;;;37.65;18.45;;;;;;;-142.18;100.00;38010.06;5153204;27;20066;-73
2021/12/23 00:40:12;;;;;;;38.30;17.80;;;;;;;-142.18;100.00;38173.13;5153211;27;20146;-72
2021/12/23 00:42:40;;;;;;;36.55;18.33;;;;;;;-142.18;100.00;38112.72;5155690;27;20110;-72
2021/12/23 00:45:08;;;;;;;35.92;18.15;;;;;;;-142.18;100.00;38247.63;5154774;27;20051;-73
2021/12/23 00:47:36;;;;;;;35.80;17.40;;;;;;;-142.18;100.00;38245.63;5136002;27;20087;-73
2021/12/23 00:50:03;;;;;;;29.38;15.45;;;;;;;-142.18;100.00;38314.06;5154086;27;20061;-72
2021/12/23 00:52:36;;;;;;;33.55;16.45;;;;;;;-142.18;100.00;38239.56;5154790;27;20059;-73
2021/12/23 00:55:05;;;;;;;;;;;;;;;-142.18;100.00;38251.66;5156749;27;20059;-72
2021/12/23 00:57:36;;;;;;;31.05;16.48;;;;;;;-142.18;100.00;38616.09;5136424;27;20728;-72
2021/12/23 01:00:11;;;;;;;31.65;16.35;;;;;;;-142.18;100.00;38386.56;5136768;27;20058;-73
2021/12/23 01:02:43;;;;;;;28.42;15.23;;;;;;;-142.18;100.00;38668.47;5153891;27;20062;-72
2021/12/23 01:05:13;;;;;;;;;;;;;;;-142.18;100.00;38551.69;5154903;27;20151;-72
2021/12/23 01:07:40;;;;;;;29.58;15.80;;;;;;;-142.18;100.00;38702.69;5137400;27;20017;-72
2021/12/23 01:10:08;;;;;;;30.15;16.63;;;;;;;-142.18;100.00;38348.31;5153951;27;20060;-73
2021/12/23 01:13:19;;;;;;;36.17;16.90;;;;;;;-142.18;100.00;38459.06;5155883;27;20081;-73
2021/12/23 01:18:08;;;;;;;34.17;16.77;;;;;;;-142.18;100.00;38434.88;5158296;27;20058;-72
2021/12/23 01:20:51;;;;;;;32.08;16.92;;;;;;;-142.18;100.00;38136.91;5140422;27;20093;-72
2021/12/23 01:23:21;;;;;;;30.55;15.95;;;;;;;-142.18;100.00;38342.25;5158205;27;20055;-73
2021/12/23 01:25:50;;;;;;;34.13;17.98;;;;;;;-142.18;100.00;38235.56;5158676;27;20070;-72
2021/12/23 01:28:18;;;;;;;34.45;17.75;;;;;;;-142.18;100.00;38175.16;5158490;27;20059;-73
2021/12/23 01:30:45;;;;;;;33.83;17.85;;;;;;;-142.18;100.00;38438.91;5137753;27;20055;-73
2021/12/23 01:33:12;;;;;;;36.63;17.67;;;;;;;-142.18;100.00;38563.75;5137853;27;20400;-73
2021/12/23 01:35:40;;;;;;;33.50;17.73;;;;;;;-142.18;100.00;38459.06;5138011;27;20052;-73
2021/12/23 01:38:08;;;;;;;33.60;16.88;;;;;;;-142.18;100.00;38448.97;5140194;27;20054;-73
2021/12/23 01:43:04;;;;;;;37.03;16.83;;;;;;;-142.18;100.00;38193.28;5089968;28;20403;-73
2021/12/23 01:45:33;;;;;;;33.38;17.75;;;;;;;-142.18;100.00;38342.25;5091877;28;20064;-73
2021/12/23 01:48:01;;;;;;;33.55;17.10;;;;;;;-142.18;100.00;38426.84;5058142;27;20065;-73
2021/12/23 01:50:29;;;;;;;31.05;16.58;;;;;;;-142.18;100.00;38173.13;5072222;27;20363;-73
2021/12/23 01:52:59;;;;;;;37.53;17.35;;;;;;;-142.18;100.00;38040.25;5054716;28;20065;-73
2021/12/23 01:55:28;;;;;;;35.42;18.25;;;;;;;-142.18;100.00;38014.09;5073540;28;20060;-73
2021/12/23 01:57:57;;;;;;;36.60;17.75;;;;;;;-142.18;100.00;38259.72;5054981;28;20501;-72
2021/12/23 02:00:26;;;;;;;31.25;16.75;;;;;;;-142.18;100.00;38563.75;5054935;28;20063;-72
2021/12/23 02:02:56;;;;;;;36.13;17.90;;;;;;;-142.18;100.00;38330.19;5072790;28;20434;-72
2021/12/23 02:05:24;;;;;;;32.50;16.58;;;;;;;-142.18;100.00;40698.75;5072247;28;20638;-73
2021/12/23 02:07:52;;;;;;;31.83;17.13;;;;;;;-142.18;100.00;39202.13;5072238;28;20809;-73
2021/12/23 02:10:19;;;;;;;32.65;16.98;;;;;;;-142.18;100.00;38042.28;5071902;28;20114;-72
2021/12/23 02:12:48;;;;;;;35.65;17.77;;;;;;;-142.18;100.00;37375.91;5072570;27;20114;-72
2021/12/23 02:15:16;;;;;;;31.35;17.27;;;;;;;-142.18;100.00;37003.53;5072572;28;20057;-73
2021/12/23 02:17:43;;;;;;;31.90;17.10;;;;;;;-142.18;100.00;37422.22;5052395;27;20057;-73
2021/12/23 02:20:19;;;;;;;32.58;16.75;;;;;;;-142.18;100.00;37480.59;5052517;27;20474;-73
2021/12/23 02:22:47;;;;;;;36.63;17.48;;;;;;;-142.18;100.00;37456.44;5051960;27;20785;-73
2021/12/23 02:25:17;;;;;;;34.65;17.73;;;;;;;-142.18;100.00;38040.25;5051722;27;20057;-73
2021/12/23 02:27:45;;;;;;;33.40;17.23;;;;;;;-142.18;100.00;38209.38;5052272;27;20061;-73
2021/12/23 02:30:16;;;;;;;34.47;17.55;;;;;;;-142.18;100.00;38354.34;5052057;27;20137;-72
2021/12/23 02:32:45;;;;;;;30.00;16.05;;;;;;;-142.18;100.00;38366.44;5051944;27;20061;-72
2021/12/23 02:35:16;;;;;;;33.25;16.48;;;;;;;-142.18;100.00;38310.06;5051739;27;20061;-72
2021/12/23 02:37:46;;;;;;;31.00;16.77;;;;;;;-142.18;100.00;38686.59;5051375;27;20833;-73
2021/12/23 02:40:26;;;;;;;31.52;16.58;;;;;;;-142.18;100.00;38448.97;5034448;28;20053;-73
2021/12/23 02:42:54;;;;;;;33.70;17.90;;;;;;;-142.18;100.00;38314.06;5052583;27;20152;-73
2021/12/23 02:45:21;;;;;;;32.03;17.08;;;;;;;-142.18;100.00;38185.22;5052227;27;20359;-72
2021/12/23 02:47:49;;;;;;;38.67;18.15;;;;;;;-142.18;100.00;37708.06;5052957;27;20061;-72
2021/12/23 02:50:16;;;;;;;34.13;19.08;;;;;;;-142.18;100.00;37722.16;5052786;27;20058;-73
2021/12/23 02:52:44;;;;;;;33.60;18.00;;;;;;;-142.18;100.00;37520.84;5052723;27;20465;-73
2021/12/23 02:55:13;;;;;;;35.42;18.00;;;;;;;-142.18;100.00;37826.84;5052931;27;20058;-73
2021/12/23 02:57:41;;;;;;;34.28;16.95;;;;;;;-142.18;100.00;38140.91;5052071;27;20058;-73
2021/12/23 03:00:09;;;;;;;31.60;17.35;;;;;;;-142.18;100.00;38378.50;5034186;27;20168;-75
2021/12/23 03:02:38;;;;;;;32.67;17.40;;;;;;;-142.18;100.00;38205.34;5052480;28;20061;-73
2021/12/23 03:05:06;;;;;;;32.60;18.13;;;;;;;-142.18;100.00;38068.44;5051580;27;20467;-73
2021/12/23 03:07:34;;;;;;;35.53;18.02;;;;;;;-142.18;100.00;38020.13;5071172;27;20156;-73
2021/12/23 03:10:05;;;;;;;38.67;18.85;;;;;;;-142.18;100.00;38102.66;5071880;27;20136;-73
2021/12/23 03:12:32;;;;;;;38.67;19.30;;;;;;;-142.18;100.00;38209.38;5071402;27;20075;-74
2021/12/23 03:15:01;;;;;;;33.63;18.05;;;;;;;-142.18;100.00;38046.28;5055098;27;20061;-73
2021/12/23 03:17:30;;;;;;;34.65;18.50;;;;;;;-142.18;100.00;38060.38;5054513;27;20067;-73
2021/12/23 03:19:57;;;;;;;38.97;18.85;;;;;;;-142.18;100.00;38169.09;5054803;27;20068;-72
2021/12/23 03:22:24;;;;;;;37.78;18.10;;;;;;;-142.18;100.00;38608.06;5054140;27;20060;-73
2021/12/23 03:24:51;;;;;;;32.33;17.73;;;;;;;-142.18;100.00;38857.75;5072113;28;20139;-73
2021/12/23 03:27:19;;;;;;;34.58;18.13;;;;;;;-142.18;100.00;38579.88;5072647;28;20500;-73
2021/12/23 03:29:45;;;;;;;33.03;17.83;;;;;;;-142.18;100.00;38718.81;5071409;27;20064;-73
2021/12/23 03:32:13;;;;;;;36.65;19.58;;;;;;;-142.18;100.00;38374.47;5072041;27;20072;-73
2021/12/23 03:34:41;;;;;;;33.15;17.83;;;;;;;-142.18;100.00;38630.19;5072254;27;20406;-73
2021/12/23 03:37:10;;;;;;;38.70;19.55;;;;;;;-142.18;100.00;38438.91;5071793;27;20057;-73
2021/12/23 03:39:38;;;;;;;36.00;19.30;;;;;;;-142.18;100.00;38161.06;5071856;27;20063;-73
2021/12/23 03:42:06;;;;;;;32.22;18.52;;;;;;;-142.18;100.00;38213.41;5071790;27;20068;-73
2021/12/23 03:44:34;;;;;;;35.47;19.42;;;;;;;-142.18;100.00;38217.44;5071377;27;20161;-72
2021/12/23 03:47:02;;;;;;;37.53;19.08;;;;;;;-142.18;100.00;38432.88;5040389;27;20092;-72
2021/12/23 03:49:29;;;;;;;34.65;18.67;;;;;;;-142.18;100.00;38213.41;5071521;27;20437;-73
2021/12/23 03:51:57;;;;;;;39.85;20.85;;;;;;;-142.18;100.00;38100.66;5054299;27;20771;-73
2021/12/23 03:54:23;;;;;;;34.95;18.60;;;;;;;-142.18;100.00;38157.03;5070844;27;20753;-73
2021/12/23 03:56:52;;;;;;;33.45;18.50;;;;;;;-142.18;100.00;38229.50;5055217;27;20400;-73
2021/12/23 03:59:19;;;;;;;35.20;18.45;;;;;;;-142.18;100.00;38736.94;5055130;27;20145;-73
2021/12/23 04:01:45;;;;;;;39.25;19.48;;;;;;;-142.18;100.00;38757.06;5072736;27;20115;-72
2021/12/23 04:04:13;;;;;;;35.55;18.80;;;;;;;-142.18;100.00;38612.09;5071511;27;20053;-73
2021/12/23 04:06:40;;;;;;;38.58;19.17;;;;;;;-142.18;100.00;38954.41;5054220;28;20788;-73
2021/12/23 04:09:07;;;;;;;39.65;18.77;;;;;;;-142.18;100.00;39192.06;5071819;27;20702;-73
2021/12/23 04:11:34;;;;;;;35.03;18.23;;;;;;;-142.18;100.00;39047.06;5054655;27;20473;-73
2021/12/23 04:14:01;;;;;;;36.22;19.40;;;;;;;-142.18;100.00;38801.38;5071906;27;20056;-73
2021/12/23 04:16:28;;;;;;;36.67;19.67;;;;;;;-142.18;100.00;38326.16;5071353;27;20365;-73
2021/12/23 04:18:56;;;;;;;36.25;19.05;;;;;;;-142.18;100.00;38289.91;5053363;27;20179;-73
2021/12/23 04:21:24;;;;;;;35.20;19.23;;;;;;;-142.18;100.00;38177.16;5071719;27;20784;-73
2021/12/23 04:23:52;;;;;;;36.88;20.42;;;;;;;-142.18;100.00;38148.97;5071607;27;20057;-74
2021/12/23 04:26:18;;;;;;;36.67;20.35;;;;;;;-142.18;100.00;38384.56;5053444;28;20079;-73
2021/12/23 04:28:47;;;;;;;38.47;19.15;;;;;;;-142.18;100.00;38471.13;5053202;28;20386;-73
2021/12/23 04:31:20;;;;;;;37.15;20.08;;;;;;;-142.18;100.00;38501.34;5052887;27;20060;-73
2021/12/23 04:33:51;;;;;;;37.70;20.42;;;;;;;-142.18;100.00;38414.75;5072001;27;20118;-73
2021/12/23 04:36:18;;;;;;;38.45;20.10;;;;;;;-142.18;100.00;38404.69;5070546;27;20057;-73
2021/12/23 04:38:47;;;;;;;41.78;21.08;;;;;;;-142.18;100.00;38885.94;5070687;27;20181;-73
2021/12/23 04:41:15;;;;;;;36.70;19.27;;;;;;;-142.18;100.00;38875.88;5052970;28;20057;-73
2021/12/23 04:43:43;;;;;;;38.60;20.00;;;;;;;-142.18;100.00;38962.47;5070518;27;20053;-74
2021/12/23 04:46:10;;;;;;;39.17;19.27;;;;;;;-142.18;100.00;39002.75;5070552;27;20140;-73
2021/12/23 04:48:39;;;;;;;40.25;21.20;;;;;;;-142.18;100.00;38938.31;5070202;27;20113;-73
2021/12/23 04:51:06;;;;;;;34.53;19.27;;;;;;;-142.18;100.00;39002.75;5070603;27;20053;-73
2021/12/23 04:53:33;;;;;;;36.67;20.88;;;;;;;-142.18;100.00;38773.19;5070744;27;20060;-73
2021/12/23 04:56:01;;;;;;;39.47;20.48;;;;;;;-142.18;100.00;38865.81;5069194;27;20052;-73
2021/12/23 04:58:28;;;;;;;43.47;21.98;;;;;;;-142.18;100.00;38716.78;5064391;27;20173;-73
2021/12/23 05:00:55;;;;;;;37.28;20.60;;;;;;;-142.18;100.00;39059.13;5070287;27;20056;-73
2021/12/23 05:03:24;;;;;;;40.05;21.20;;;;;;;-142.18;100.00;38817.47;5070389;27;20485;-73
2021/12/23 05:05:51;;;;;;;39.97;20.42;;;;;;;-142.18;100.00;39433.72;5070126;27;20155;-73
2021/12/23 05:08:20;;;;;;;40.05;21.30;;;;;;;-142.18;100.00;39264.56;5070669;27;20437;-73
2021/12/23 05:10:47;;;;;;;40.05;21.63;;;;;;;-142.18;100.00;38906.09;5052153;27;20057;-72
2021/12/23 05:13:15;;;;;;;40.70;21.40;;;;;;;-142.18;100.00;38980.59;5052883;28;20455;-72
2021/12/23 05:15:42;;;;;;;41.22;21.92;;;;;;;-142.18;100.00;39063.16;5070088;28;20065;-73
2021/12/23 05:18:09;;;;;;;42.72;21.60;;;;;;;-142.18;100.00;39115.53;5051363;28;20099;-73
2021/12/23 05:20:37;;;;;;;39.75;21.17;;;;;;;-142.18;100.00;38845.66;5069587;27;20466;-73
2021/12/23 05:23:05;;;;;;;40.33;21.23;;;;;;;-142.18;100.00;38747.00;5066851;27;20508;-73
2021/12/23 05:25:32;;;;;;;43.63;22.38;;;;;;;-142.18;100.00;38728.88;5066961;28;20056;-73
2021/12/23 05:28:01;;;;;;;42.08;21.58;;;;;;;-142.18;100.00;38740.97;5069317;27;20072;-73
2021/12/23 05:30:27;;;;;;;42.38;21.13;;;;;;;-142.18;100.00;39341.09;5068980;27;20052;-73
2021/12/23 05:32:55;;;;;;;37.85;20.67;;;;;;;-142.18;100.00;38759.09;5070420;27;20136;-73
2021/12/23 05:35:23;;;;;;;40.15;22.67;;;;;;;-142.18;100.00;38926.22;5068999;27;20061;-73
2021/12/23 05:37:51;;;;;;;43.05;21.80;;;;;;;-142.18;100.00;38696.66;5069194;27;20172;-74
2021/12/23 05:40:20;;;;;;;40.70;21.58;;;;;;;-142.18;100.00;39184.00;5050868;27;20118;-73
2021/12/23 05:42:47;;;;;;;41.92;22.02;;;;;;;-142.18;100.00;38889.97;5068502;27;20730;-73
2021/12/23 05:45:14;;;;;;;41.58;21.95;;;;;;;-142.18;100.00;39455.88;5050596;27;20056;-74
2021/12/23 05:47:43;;;;;;;47.65;23.52;;;;;;;-142.18;100.00;39469.97;5068342;27;20053;-73
2021/12/23 05:50:12;;;;;;;42.85;21.52;;;;;;;-142.18;100.00;39566.66;5050982;27;20060;-73
2021/12/23 05:52:39;;;;;;;43.15;22.02;;;;;;;-142.18;100.00;39631.09;5068817;27;20450;-73
2021/12/23 05:55:08;;;;;;;42.05;22.52;;;;;;;-142.18;100.00;39510.25;5084210;28;20056;-73
2021/12/23 05:57:36;;;;;;;39.63;22.65;;;;;;;-142.18;100.00;39578.75;5088983;28;20056;-73
2021/12/23 06:00:09;;;;;;;44.05;22.73;;;;;;;-142.18;100.00;39022.88;5075199;28;20060;-73
2021/12/23 06:02:37;;;;;;;39.90;22.35;;;;;;;-142.18;100.00;39188.03;5092922;28;20067;-73
2021/12/23 06:05:05;;;;;;;45.67;22.40;;;;;;;-142.18;100.00;39421.66;5093183;28;20659;-73
2021/12/23 06:07:32;;;;;;;42.92;21.75;;;;;;;-142.18;100.00;39365.25;5075155;28;20623;-73
2021/12/23 06:10:03;;;;;;;42.35;21.63;;;;;;;-142.18;100.00;39236.34;5075322;28;20056;-73
2021/12/23 06:12:29;;;;;;;38.10;21.15;;;;;;;-142.18;100.00;39073.22;5092821;27;20048;-74
2021/12/23 06:14:59;;;;;;;43.47;22.95;;;;;;;-142.18;100.00;39014.81;5065839;27;20061;-74
2021/12/23 06:17:25;;;;;;;44.05;23.27;;;;;;;-142.18;100.00;38906.09;5034632;27;20089;-74
2021/12/23 06:19:53;;;;;;;43.88;22.35;;;;;;;-142.18;100.00;39002.75;5051104;27;20072;-74
2021/12/23 06:22:20;;;;;;;43.88;22.23;;;;;;;-142.18;100.00;39304.84;5067632;27;20083;-74
2021/12/23 06:24:51;;;;;;;43.08;22.52;;;;;;;-142.18;100.00;38990.66;5053845;28;20064;-74
2021/12/23 06:27:19;;;;;;;47.38;23.52;;;;;;;-142.18;100.00;39121.56;5071953;27;20072;-74
2021/12/23 06:29:48;;;;;;;44.97;23.25;;;;;;;-142.18;100.00;39014.81;5071419;27;20081;-74
2021/12/23 06:32:18;;;;;;;44.55;23.88;;;;;;;-142.18;100.00;39324.97;5054154;28;20056;-73
2021/12/23 06:34:46;;;;;;;40.38;21.75;;;;;;;-142.18;100.00;39008.78;5054264;27;20347;-74
2021/12/23 06:37:14;;;;;;;45.85;23.25;;;;;;;-142.18;100.00;38684.56;5071934;27;20064;-74
2021/12/23 06:39:44;;;;;;;48.65;24.90;;;;;;;-142.18;100.00;39139.69;5054274;27;20061;-74
2021/12/23 06:42:10;;;;;;;45.90;23.13;;;;;;;-142.18;100.00;39542.50;5071938;27;20057;-74
2021/12/23 06:44:38;;;;;;;42.00;23.05;;;;;;;-142.18;100.00;39155.81;5071733;27;20057;-76
2021/12/23 06:47:05;;;;;;;40.45;22.33;;;;;;;-142.18;100.00;39373.31;5055515;27;20063;-74
2021/12/23 06:49:33;;;;;;;45.08;23.48;;;;;;;-142.18;100.00;39051.06;5116694;27;20070;-74
2021/12/23 06:52:01;;;;;;;44.13;23.05;;;;;;;-142.18;100.00;38938.31;5149854;27;20061;-73
2021/12/23 06:54:29;;;;;;;44.90;22.13;;;;;;;-142.18;100.00;38799.34;5105613;27;20053;-74
2021/12/23 06:56:57;;;;;;;44.28;23.15;;;;;;;-142.18;100.00;39202.13;5062304;27;20060;-74
2021/12/23 06:59:25;;;;;;;43.42;22.10;;;;;;;-142.18;100.00;38942.34;5070607;27;20361;-74
2021/12/23 07:01:53;;;;;;;44.53;23.70;;;;;;;-142.18;100.00;38986.63;5068775;27;20067;-74
2021/12/23 07:04:27;;;;;;;43.33;22.17;;;;;;;-142.18;100.00;38765.13;5072641;27;21358;-73
2021/12/23 07:07:25;;;;;;;47.20;23.77;;;;;;;-142.18;100.00;38926.22;5071955;27;20069;-74
2021/12/23 07:09:53;;;;;;;46.78;23.15;;;;;;;-142.18;100.00;39053.09;5071635;27;20061;-73
2021/12/23 07:12:21;;;;;;;44.22;22.25;;;;;;;-142.18;100.00;39337.06;5071397;27;20151;-73
2021/12/23 07:14:49;;;;;;;45.65;22.98;;;;;;;-142.18;100.00;38990.66;5046714;28;20064;-73
2021/12/23 07:17:17;;;;;;;45.50;22.58;;;;;;;-142.18;100.00;39133.66;5050983;27;20155;-73
2021/12/23 07:19:44;;;;;;;44.58;23.05;;;;;;;-142.18;100.00;39071.22;5032505;28;20394;-73
2021/12/23 07:22:11;;;;;;;45.65;24.25;;;;;;;-142.18;100.00;38857.75;5033198;27;20053;-73
2021/12/23 07:24:41;;;;;;;44.13;22.83;;;;;;;-142.18;100.00;38761.09;5033681;27;20049;-74
2021/12/23 07:27:09;;;;;;;46.85;23.23;;;;;;;-142.18;100.00;38738.94;5067364;27;20478;-74
2021/12/23 07:29:39;;;;;;;48.72;24.08;;;;;;;-142.18;100.00;38831.56;5068943;27;20061;-73
2021/12/23 07:32:09;;;;;;;50.53;24.17;;;;;;;-142.18;100.00;38386.56;5065113;27;20061;-74
2021/12/23 07:34:40;;;;;;;43.05;22.73;;;;;;;-142.18;100.00;38724.84;5032456;27;20486;-74
2021/12/23 07:37:10;;;;;;;42.92;23.15;;;;;;;-142.18;100.00;38805.41;5048953;27;20074;-74
2021/12/23 07:39:38;;;;;;;49.95;24.20;;;;;;;-142.18;100.00;38773.19;5048818;27;20062;-74
2021/12/23 07:42:27;;;;;;;44.60;23.50;;;;;;;-142.18;100.00;38978.56;5048697;27;20768;-74
2021/12/23 07:44:55;;;;;;;47.78;24.75;;;;;;;-142.18;100.00;39147.75;5049881;27;20057;-74
2021/12/23 07:47:23;;;;;;;52.80;25.42;;;;;;;-142.18;100.00;39107.47;5032714;28;20072;-74
2021/12/23 07:49:51;;;;;;;48.60;23.88;;;;;;;-142.18;100.00;39041.00;5049838;27;20067;-74
2021/12/23 07:52:20;;;;;;;47.13;24.58;;;;;;;-142.18;100.00;39266.56;5032749;28;20057;-73
2021/12/23 07:54:47;;;;;;;52.35;24.50;;;;;;;-142.18;100.00;39300.81;5058151;27;20156;-74
2021/12/23 07:57:16;;;;;;;48.83;25.13;;;;;;;-142.18;100.00;39200.09;5042631;27;20069;-74
2021/12/23 07:59:42;;;;;;;46.47;23.85;;;;;;;-142.18;100.00;39562.63;5054286;27;20058;-74
2021/12/23 08:02:10;;;;;;;41.85;23.42;;;;;;;-142.18;100.00;39496.16;5058425;27;20392;-74
2021/12/23 08:04:39;;;;;;;43.78;23.08;;;;;;;-142.18;100.00;39407.53;5055234;27;20065;-74
2021/12/23 08:07:06;;;;;;;46.38;25.02;;;;;;;-142.18;100.00;39492.13;5048757;27;20059;-73
2021/12/23 08:09:38;;;;;;;47.28;24.73;;;;;;;-142.18;100.00;39413.59;5052111;27;20065;-73
2021/12/23 08:12:08;;;;;;;51.85;26.52;;;;;;;-142.18;100.00;39465.94;5069438;27;20148;-74
2021/12/23 08:14:35;;;;;;;45.08;24.45;;;;;;;-142.18;100.00;39695.56;5060912;27;20057;-73
2021/12/23 08:17:13;;;;;;;44.58;23.42;;;;;;;-142.18;100.00;39610.97;5064394;27;20068;-73
2021/12/23 08:19:41;;;;;;;47.90;25.13;;;;;;;-142.18;100.00;39639.16;5041068;27;20073;-73
2021/12/23 08:22:08;;;;;;;95.10;27.30;;;;;;;-142.18;100.00;39558.59;5048608;27;20061;-74
2021/12/23 08:24:35;;;;;;;49.40;24.42;;;;;;;-142.18;100.00;39510.25;5065201;27;20508;-74
2021/12/23 08:27:04;;;;;;;62.88;25.33;;;;;;;-142.18;100.00;39808.34;5068434;27;20068;-73
2021/12/23 08:29:31;;;;;;;49.85;24.65;;;;;;;-142.18;100.00;39780.16;5067871;27;20110;-73
2021/12/23 08:32:03;;;;;;;53.60;25.83;;;;;;;-142.18;100.00;39772.09;5052086;27;20064;-74
2021/12/23 08:34:34;;;;;;;52.30;24.88;;;;;;;-142.18;100.00;40114.53;5041529;28;20072;-74
2021/12/23 08:37:02;;;;;;;47.92;25.30;;;;;;;-142.18;100.00;40134.69;5032157;28;20045;-73
2021/12/23 08:39:30;;;;;;;49.28;25.10;;;;;;;-142.18;100.00;39993.66;5031720;28;20072;-73
2021/12/23 08:41:56;;;;;;;49.53;25.33;;;;;;;-142.18;100.00;40303.88;5049902;27;20793;-73
2021/12/23 08:44:23;;;;;;;53.35;26.17;;;;;;;-142.18;100.00;40001.72;5049497;27;20438;-73
2021/12/23 08:46:51;;;;;;;48.78;25.90;;;;;;;-142.18;100.00;40322.03;5084319;27;20144;-73
2021/12/23 08:49:19;;;;;;;52.42;25.75;;;;;;;-142.18;100.00;40491.25;5070251;27;20068;-73
2021/12/23 08:51:47;;;;;;;48.22;25.90;;;;;;;-142.18;100.00;40320.00;5052474;28;20057;-73
2021/12/23 08:54:14;;;;;;;51.90;26.27;;;;;;;-142.18;100.00;40513.41;5051197;28;20819;-73
2021/12/23 08:56:42;;;;;;;49.08;25.38;;;;;;;-142.18;100.00;40612.13;5062546;27;20076;-73
2021/12/23 08:59:10;;;;;;;48.65;24.92;;;;;;;-142.18;100.00;40610.09;5048784;27;20087;-74
2021/12/23 09:01:40;;;;;;;49.28;24.48;;;;;;;-142.18;100.00;40964.69;5048796;27;20062;-72
2021/12/23 09:04:08;;;;;;;48.97;24.48;;;;;;;-142.18;100.00;40743.06;5048870;27;20106;-75
2021/12/23 09:06:36;;;;;;;54.25;27.27;;;;;;;-142.18;100.00;40676.59;5049616;27;20574;-75
2021/12/23 09:09:08;;;;;;;47.50;25.85;;;;;;;-142.18;100.00;40622.19;5057215;27;20422;-74
2021/12/23 09:11:36;;;;;;;53.33;26.42;;;;;;;-142.18;100.00;40523.47;5067052;27;20060;-74
2021/12/23 09:14:03;;;;;;;46.70;24.50;;;;;;;-142.18;100.00;40660.47;5056522;27;20139;-74
2021/12/23 09:16:31;;;;;;;51.78;26.17;;;;;;;-142.18;100.00;40978.81;5061835;27;20060;-74
2021/12/23 09:18:58;;;;;;;49.47;25.13;;;;;;;-142.18;100.00;40831.72;5068666;27;20063;-74
2021/12/23 09:21:26;;;;;;;47.28;25.55;;;;;;;-142.18;100.00;40912.31;5040716;27;20061;-74
2021/12/23 09:24:02;;;;;;;50.38;26.25;;;;;;;-142.18;100.00;40400.59;5074025;27;20060;-74
2021/12/23 09:26:34;;;;;;;50.75;26.13;;;;;;;-142.18;100.00;40251.50;5069307;27;20076;-74
2021/12/23 09:29:14;;;;;;;51.35;26.25;;;;;;;-142.18;100.00;40261.59;5052249;27;20057;-74
2021/12/23 09:34:32;;;;;;;52.67;27.00;;;;;;;-142.18;100.00;40561.75;5075260;27;20057;-74
2021/12/23 09:36:59;;;;;;;52.47;26.48;;;;;;;-142.18;100.00;40223.31;5076213;27;20077;-76
2021/12/23 09:39:30;;;;;;;47.25;25.30;;;;;;;-142.18;100.00;40062.16;5065245;27;20143;-75
2021/12/23 09:41:59;;;;;;;49.45;25.75;;;;;;;-142.18;100.00;39993.66;5080297;27;20056;-75
2021/12/23 09:44:28;;;;;;;51.55;26.35;;;;;;;-142.18;100.00;39598.88;5085823;27;20087;-75
2021/12/23 09:47:02;;;;;;;52.03;26.10;;;;;;;-142.18;100.00;39840.59;5082773;27;20057;-75
2021/12/23 09:49:33;;;;;;;51.15;25.23;;;;;;;-142.18;100.00;39997.69;5062983;27;20061;-74
2021/12/23 09:52:04;;;;;;;50.13;25.50;;;;;;;-142.18;100.00;40432.81;5053543;27;20057;-74
2021/12/23 09:54:31;;;;;;;54.80;26.85;;;;;;;-142.18;100.00;40714.88;5076850;27;20075;-73
2021/12/23 09:56:58;;;;;;;52.22;25.98;;;;;;;-142.18;100.00;40577.88;5069127;27;20053;-73
2021/12/23 09:59:27;;;;;;;52.45;27.45;;;;;;;-142.18;100.00;40299.88;5073288;27;20057;-73
2021/12/23 10:01:55;;;;;;;52.47;26.20;;;;;;;-142.18;100.00;40199.13;5072872;27;20065;-74
2021/12/23 10:04:22;;;;;;;53.42;27.67;;;;;;;-142.18;100.00;39899.00;5070122;27;20061;-73
2021/12/23 10:06:51;;;;;;;51.55;26.58;;;;;;;-142.18;100.00;39997.69;5071472;27;20061;-74
2021/12/23 10:09:36;;;;;;;54.83;25.85;;;;;;;-142.18;100.00;40040.00;5070230;27;20087;-73
2021/12/23 10:32:36;;;;;;;58.35;29.13;;;;;;;-142.18;100.00;39937.28;5070127;28;20053;-74
2021/12/23 10:38:12;;;;;;;57.85;28.00;;;;;;;-142.18;100.00;40160.88;5050613;28;20140;-74
2021/12/23 10:40:48;;;;;;;55.50;26.90;;;;;;;-142.18;100.00;40187.06;5050901;28;20061;-74
2021/12/23 10:44:01;;;;;;;56.08;27.13;;;;;;;-142.18;100.00;40247.47;5040193;28;20104;-73
2021/12/23 10:46:39;;;;;;;60.17;27.17;;;;;;;-142.18;100.00;40457.00;5060103;28;20132;-74
2021/12/23 10:49:52;;;;;;;60.55;28.38;;;;;;;-142.18;100.00;40469.09;5035369;28;20435;-73
2021/12/23 10:52:26;;;;;;;;;;;;;;;-142.18;100.00;39905.03;5070783;28;20144;-74
2021/12/23 11:00:26;;;;;;;60.83;28.33;;;;;;;-142.18;100.00;40098.41;5054296;27;20111;-74
2021/12/23 11:03:18;;;;;;;57.65;28.30;;;;;;;-142.18;100.00;39989.66;5049939;28;20104;-75
2021/12/23 11:06:11;;;;;;;58.75;28.02;;;;;;;-142.18;100.00;39856.69;5045861;28;20064;-75
2021/12/23 11:09:13;;;;;;;62.03;28.80;;;;;;;-142.18;100.00;40485.19;5067515;28;20057;-74
2021/12/23 11:12:16;;;;;;;56.67;26.70;;;;;;;-142.18;100.00;40134.69;5051855;28;20065;-74
2021/12/23 11:29:24;;;;;;;60.47;27.13;;;;;;;-142.18;100.00;40166.91;5035522;27;20058;-75
2021/12/23 11:37:37;;;;;;;60.05;27.15;;;;;;;-142.18;100.00;39739.88;5049245;27;20054;-73
2021/12/23 11:40:11;;;;;;;65.18;28.02;;;;;;;-142.18;100.00;38980.59;5056528;27;20064;-73
2021/12/23 11:45:29;;;;;;;63.08;27.63;;;;;;;-142.18;100.00;39234.34;5102625;27;20467;-73
2021/12/23 11:47:57;;;;;;;60.38;28.67;;;;;;;-142.18;100.00;38865.81;5033190;28;20148;-73
2021/12/23 11:50:33;;;;;;;66.00;29.60;;;;;;;-142.18;100.00;38930.25;5047539;27;20115;-73
2021/12/23 11:53:03;;;;;;;61.47;28.25;;;;;;;-142.18;100.00;39264.56;5047327;27;20115;-72
2021/12/23 11:55:30;;;;;;;62.72;28.55;;;;;;;-142.18;100.00;39300.81;5028402;27;20162;-73
2021/12/23 11:57:59;;;;;;;64.78;30.38;;;;;;;-142.18;100.00;38950.38;5030515;27;20084;-73
2021/12/23 12:01:01;;;;;;;65.13;30.05;;;;;;;-142.18;100.00;39252.47;5030474;27;20234;-74
2021/12/23 12:03:30;;;;;;;59.88;27.05;;;;;;;-142.18;100.00;39302.81;5031501;27;20070;-74
2021/12/23 12:06:18;;;;;;;61.80;28.30;;;;;;;-142.18;100.00;39103.44;5124099;27;20062;-74
2021/12/23 12:09:14;;;;;;;65.85;29.27;;;;;;;-142.18;100.00;38946.34;5153855;27;20483;-74
2021/12/23 12:11:50;;;;;;;57.28;27.10;;;;;;;-142.18;100.00;39324.97;5109752;27;20065;-73
2021/12/23 12:14:40;;;;;;;60.97;29.17;;;;;;;-142.18;100.00;38948.38;5049532;27;20057;-74